createdAt,value
2019-01-15T00:02:08.867Z,11.40
2019-01-15T00:04:37.171Z,7.73
2019-01-15T00:07:05.548Z,32.13
2019-01-15T00:09:33.794Z,23.40
2019-01-15T00:12:07.787Z,16.33
2019-01-15T00:14:32.058Z,25.17
2019-01-15T00:17:00.458Z,14.40
2019-01-15T00:19:28.752Z,7.00
2019-01-15T00:21:57.069Z,4.83
2019-01-15T00:24:27.455Z,8.20
2019-01-15T00:26:57.234Z,15.73
2019-01-15T00:29:25.655Z,13.43
2019-01-15T00:31:54.565Z,9.90
2019-01-15T00:34:22.935Z,10.37
2019-01-15T00:36:51.260Z,24.30
2019-01-15T00:39:19.976Z,9.30
2019-01-15T00:41:48.541Z,11.53
2019-01-15T00:44:16.826Z,7.87
2019-01-15T00:46:45.104Z,8.30
2019-01-15T00:49:13.471Z,4.27
2019-01-15T00:51:41.802Z,7.73
2019-01-15T00:54:10.164Z,7.83
2019-01-15T00:56:38.433Z,7.07
2019-01-15T00:59:06.812Z,3.83
2019-01-15T01:01:35.096Z,11.60
2019-01-15T01:04:03.609Z,15.10
2019-01-15T01:06:31.965Z,13.53
2019-01-15T01:09:00.223Z,7.70
2019-01-15T01:11:28.545Z,7.87
2019-01-15T01:13:56.817Z,24.77
2019-01-15T01:16:25.125Z,11.47
2019-01-15T01:18:53.442Z,11.20
2019-01-15T01:21:21.729Z,6.43
2019-01-15T01:23:49.987Z,13.30
2019-01-15T01:26:18.238Z,16.60
2019-01-15T01:28:46.515Z,13.40
2019-01-15T01:31:14.803Z,8.60
2019-01-15T01:33:43.106Z,9.10
2019-01-15T01:36:11.354Z,15.83
2019-01-15T01:38:39.645Z,7.40
2019-01-15T01:41:08.031Z,17.63
2019-01-15T01:43:36.330Z,6.73
2019-01-15T01:46:04.619Z,12.33
2019-01-15T01:48:32.905Z,9.40
2019-01-15T01:51:01.166Z,11.17
2019-01-15T01:53:29.450Z,11.93
2019-01-15T01:55:58.074Z,5.77
2019-01-15T01:58:26.398Z,12.63
2019-01-15T02:00:54.706Z,16.13
2019-01-15T02:03:23.007Z,6.93
2019-01-15T02:05:51.277Z,10.20
2019-01-15T02:08:19.526Z,8.87
2019-01-15T02:10:47.843Z,12.23
2019-01-15T02:13:16.148Z,10.17
2019-01-15T02:15:44.438Z,7.80
2019-01-15T02:18:12.700Z,10.63
2019-01-15T02:20:40.963Z,9.90
2019-01-15T02:23:09.297Z,5.67
2019-01-15T02:25:37.559Z,15.00
2019-01-15T02:28:05.842Z,5.40
2019-01-15T02:30:34.189Z,5.80
2019-01-15T02:33:02.647Z,3.50
2019-01-15T02:35:30.894Z,7.60
2019-01-15T02:37:59.234Z,8.57
2019-01-15T02:40:27.533Z,13.93
2019-01-15T02:42:55.779Z,9.53
2019-01-15T02:45:24.058Z,3.30
2019-01-15T02:47:52.308Z,7.00
2019-01-15T02:50:21.163Z,10.13
2019-01-15T02:52:49.454Z,14.37
2019-01-15T02:55:17.714Z,10.80
2019-01-15T02:57:46.021Z,4.27
2019-01-15T03:00:17.136Z,3.23
2019-01-15T03:02:45.429Z,18.77
2019-01-15T03:05:13.913Z,11.13
2019-01-15T03:07:42.214Z,22.00
2019-01-15T03:10:13.339Z,12.80
2019-01-15T03:12:43.373Z,9.40
2019-01-15T03:15:11.617Z,4.50
2019-01-15T03:17:39.869Z,4.67
2019-01-15T03:20:13.550Z,7.70
2019-01-15T03:22:41.803Z,10.27
2019-01-15T03:25:10.467Z,7.57
2019-01-15T03:27:38.856Z,5.80
2019-01-15T03:30:10.854Z,9.77
2019-01-15T03:32:39.164Z,8.13
2019-01-15T03:35:07.596Z,6.93
2019-01-15T03:37:35.847Z,9.00
2019-01-15T03:40:07.013Z,4.00
2019-01-15T03:42:35.259Z,8.27
2019-01-15T03:45:04.985Z,8.30
2019-01-15T03:47:33.504Z,11.07
2019-01-15T03:50:01.774Z,2.50
2019-01-15T03:52:30.035Z,10.17
2019-01-15T03:54:58.344Z,5.43
2019-01-15T03:57:26.628Z,6.17
2019-01-15T03:59:54.903Z,3.70
2019-01-15T04:02:23.366Z,8.33
2019-01-15T04:04:51.942Z,3.27
2019-01-15T04:07:20.336Z,5.33
2019-01-15T04:09:49.494Z,4.00
2019-01-15T04:12:17.762Z,3.63
2019-01-15T04:14:46.101Z,6.97
2019-01-15T04:17:14.402Z,3.63
2019-01-15T04:19:42.713Z,11.47
2019-01-15T04:22:11.038Z,6.47
2019-01-15T04:24:39.426Z,9.63
2019-01-15T04:27:07.682Z,4.93
2019-01-15T04:29:35.941Z,4.97
2019-01-15T04:32:04.225Z,10.43
2019-01-15T04:34:32.521Z,11.63
2019-01-15T04:37:00.838Z,4.10
2019-01-15T04:39:29.118Z,10.00
2019-01-15T04:41:57.359Z,4.33
2019-01-15T04:44:25.644Z,5.13
2019-01-15T04:46:53.953Z,4.03
2019-01-15T04:49:22.365Z,1.07
2019-01-15T04:51:50.618Z,5.53
2019-01-15T04:54:18.877Z,5.27
2019-01-15T04:56:47.461Z,3.20
2019-01-15T04:59:15.829Z,4.27
2019-01-15T05:01:44.208Z,3.33
2019-01-15T05:04:12.587Z,11.23
2019-01-15T05:06:40.834Z,5.10
2019-01-15T05:09:09.282Z,5.17
2019-01-15T05:11:37.591Z,27.30
2019-01-15T05:14:05.842Z,7.20
2019-01-15T05:16:34.132Z,7.03
2019-01-15T05:19:02.436Z,12.03
2019-01-15T05:21:31.384Z,10.73
2019-01-15T05:23:59.693Z,13.27
2019-01-15T05:26:28.325Z,10.10
2019-01-15T05:28:56.928Z,10.37
2019-01-15T05:31:25.266Z,7.50
2019-01-15T05:33:53.542Z,10.13
2019-01-15T05:36:21.969Z,15.40
2019-01-15T05:38:50.208Z,6.67
2019-01-15T05:41:18.493Z,11.00
2019-01-15T05:43:46.816Z,15.93
2019-01-15T05:46:15.068Z,9.33
2019-01-15T05:48:43.513Z,12.13
2019-01-15T05:51:13.426Z,10.77
2019-01-15T05:53:41.689Z,10.67
2019-01-15T05:56:10.021Z,11.53
2019-01-15T05:58:38.390Z,26.20
2019-01-15T06:01:06.921Z,16.17
2019-01-15T06:03:35.248Z,10.20
2019-01-15T06:06:03.680Z,10.90
2019-01-15T06:08:33.379Z,11.20
2019-01-15T06:11:01.927Z,23.93
2019-01-15T06:13:30.302Z,16.47
2019-01-15T06:15:58.587Z,19.47
2019-01-15T06:18:26.881Z,13.10
2019-01-15T06:20:55.198Z,13.10
2019-01-15T06:23:23.557Z,19.10
2019-01-15T06:25:51.900Z,22.63
2019-01-15T06:28:20.199Z,23.43
2019-01-15T06:30:48.556Z,21.50
2019-01-15T06:33:16.829Z,28.97
2019-01-15T06:35:45.091Z,18.20
2019-01-15T06:38:13.446Z,19.60
2019-01-15T06:40:41.751Z,27.90
2019-01-15T06:43:09.991Z,18.43
2019-01-15T06:45:38.279Z,19.47
2019-01-15T06:48:10.034Z,20.93
2019-01-15T06:50:38.333Z,25.30
2019-01-15T06:53:06.621Z,17.90
2019-01-15T06:55:35.078Z,31.20
2019-01-15T06:58:03.376Z,18.90
2019-01-15T07:00:32.282Z,20.13
2019-01-15T07:03:00.540Z,20.20
2019-01-15T07:05:28.914Z,24.53
2019-01-15T07:07:57.237Z,17.27
2019-01-15T07:10:28.227Z,20.23
2019-01-15T07:12:56.631Z,18.93
2019-01-15T07:15:24.952Z,34.03
2019-01-15T07:17:53.211Z,19.57
2019-01-15T07:20:21.492Z,30.23
2019-01-15T07:22:49.843Z,29.73
2019-01-15T07:25:23.655Z,31.37
2019-01-15T07:27:51.905Z,17.20
2019-01-15T07:30:23.526Z,26.53
2019-01-15T07:32:51.811Z,23.70
2019-01-15T07:35:20.091Z,31.43
2019-01-15T07:37:48.374Z,22.03
2019-01-15T07:40:16.683Z,25.53
2019-01-15T07:42:44.944Z,30.10
2019-01-15T07:45:14.202Z,26.13
2019-01-15T07:47:42.469Z,25.80
2019-01-15T07:50:20.976Z,24.40
2019-01-15T07:52:49.402Z,31.87
2019-01-15T07:55:18.947Z,19.87
2019-01-15T07:57:47.220Z,30.73
2019-01-15T08:00:20.404Z,32.23
2019-01-15T08:02:49.329Z,19.50
2019-01-15T08:05:19.765Z,32.87
2019-01-15T08:07:48.080Z,22.60
2019-01-15T08:10:17.628Z,31.97
2019-01-15T08:12:45.951Z,22.17
2019-01-15T08:15:17.336Z,42.63
2019-01-15T08:17:45.642Z,24.90
2019-01-15T08:20:14.562Z,36.17
2019-01-15T08:22:42.863Z,23.53
2019-01-15T08:25:13.638Z,32.90
2019-01-15T08:27:41.918Z,41.33
2019-01-15T08:30:28.056Z,33.33
2019-01-15T08:32:56.322Z,20.47
2019-01-15T08:35:24.598Z,31.23
2019-01-15T08:37:52.850Z,41.03
2019-01-15T08:40:21.373Z,35.03
2019-01-15T08:42:49.623Z,27.60
2019-01-15T08:45:18.595Z,35.60
2019-01-15T08:47:51.507Z,22.53
2019-01-15T08:50:22.755Z,27.30
2019-01-15T08:52:51.020Z,33.30
2019-01-15T08:55:19.344Z,33.47
2019-01-15T08:57:47.655Z,26.10
2019-01-15T09:00:15.899Z,35.23
2019-01-15T09:02:44.448Z,35.90
2019-01-15T09:05:12.877Z,26.00
2019-01-15T09:07:41.120Z,17.23
2019-01-15T09:10:12.804Z,41.30
2019-01-15T09:12:41.188Z,25.23
2019-01-15T09:15:12.328Z,30.30
2019-01-15T09:17:40.610Z,33.03
2019-01-15T09:20:12.311Z,27.27
2019-01-15T09:22:40.565Z,22.43
2019-01-15T09:25:08.833Z,25.43
2019-01-15T09:27:37.128Z,25.40
2019-01-15T09:30:12.290Z,20.30
2019-01-15T09:32:40.586Z,21.97
2019-01-15T09:35:08.858Z,20.00
2019-01-15T09:37:37.310Z,26.50
2019-01-15T09:40:09.095Z,17.13
2019-01-15T09:42:37.379Z,19.20
2019-01-15T09:45:08.902Z,18.80
2019-01-15T09:47:38.853Z,22.20
2019-01-15T09:50:10.648Z,25.03
2019-01-15T09:52:39.168Z,22.30
2019-01-15T09:55:08.789Z,28.17
2019-01-15T09:57:37.364Z,20.33
2019-01-15T10:00:13.883Z,24.30
2019-01-15T10:02:42.139Z,21.83
2019-01-15T10:05:10.403Z,10.60
2019-01-15T10:07:38.738Z,21.80
2019-01-15T10:10:10.282Z,15.43
2019-01-15T10:12:38.528Z,15.03
2019-01-15T10:15:12.625Z,22.50
2019-01-15T10:17:40.886Z,22.13
2019-01-15T10:20:11.297Z,13.80
2019-01-15T10:22:39.598Z,17.93
2019-01-15T10:25:10.491Z,18.50
2019-01-15T10:27:39.026Z,13.13
2019-01-15T10:30:21.277Z,24.17
2019-01-15T10:32:55.690Z,27.53
2019-01-15T10:35:27.266Z,14.20
2019-01-15T10:37:55.509Z,14.40
2019-01-15T10:40:23.873Z,24.73
2019-01-15T10:42:52.147Z,22.57
2019-01-15T10:45:20.426Z,15.73
2019-01-15T10:47:48.720Z,31.30
2019-01-15T10:50:17.040Z,19.80
2019-01-15T10:52:45.319Z,24.17
2019-01-15T10:55:13.672Z,34.53
2019-01-15T10:57:41.955Z,14.67
2019-01-15T11:00:15.314Z,24.50
2019-01-15T11:02:43.581Z,16.83
2019-01-15T11:05:12.326Z,14.73
2019-01-15T11:07:40.651Z,11.50
2019-01-15T11:10:12.329Z,23.90
2019-01-15T11:12:40.580Z,21.07
2019-01-15T11:15:09.286Z,27.20
2019-01-15T11:17:37.573Z,27.47
2019-01-15T11:20:09.093Z,24.40
2019-01-15T11:22:37.390Z,15.33
2019-01-15T11:25:07.427Z,19.03
2019-01-15T11:27:35.698Z,23.40
2019-01-15T11:30:07.034Z,22.73
2019-01-15T11:32:35.362Z,23.87
2019-01-15T11:35:04.207Z,12.17
2019-01-15T11:37:32.469Z,16.10
2019-01-15T11:40:00.741Z,17.13
2019-01-15T11:42:29.062Z,18.10
2019-01-15T11:45:03.342Z,15.00
2019-01-15T11:47:27.306Z,24.60
2019-01-15T11:49:55.586Z,24.53
2019-01-15T11:52:23.876Z,20.33
2019-01-15T11:54:52.145Z,10.47
2019-01-15T11:57:20.532Z,12.63
2019-01-15T11:59:48.800Z,12.40
2019-01-15T12:02:22.336Z,22.50
2019-01-15T12:04:50.306Z,30.83
2019-01-15T12:07:26.483Z,16.40
2019-01-15T12:10:02.171Z,16.93
2019-01-15T12:12:37.971Z,14.80
2019-01-15T12:15:11.459Z,16.83
2019-01-15T12:17:53.430Z,19.63
2019-01-15T12:20:29.316Z,11.40
2019-01-15T12:23:02.385Z,10.53
2019-01-15T12:25:35.056Z,16.07
2019-01-15T12:28:23.058Z,24.67
2019-01-15T12:31:01.963Z,9.47
2019-01-15T12:33:40.593Z,16.37
2019-01-15T12:36:26.658Z,20.23
2019-01-15T12:38:59.023Z,17.50
2019-01-15T12:41:28.934Z,14.77
2019-01-15T12:43:58.855Z,12.97
2019-01-15T12:46:31.297Z,11.83
2019-01-15T12:49:12.986Z,16.30
2019-01-15T12:51:51.772Z,11.70
2019-01-15T12:54:24.559Z,17.77
2019-01-15T12:56:54.454Z,19.87
2019-01-15T12:59:52.715Z,15.37
2019-01-15T13:02:32.101Z,9.27
2019-01-15T13:05:14.194Z,11.90
2019-01-15T13:07:49.832Z,8.63
2019-01-15T13:10:36.745Z,8.67
2019-01-15T13:13:23.215Z,16.20
2019-01-15T13:15:56.784Z,10.27
2019-01-15T13:18:32.687Z,9.50
2019-01-15T13:21:08.649Z,13.50
2019-01-15T13:23:44.601Z,15.93
2019-01-15T13:26:20.523Z,17.07
2019-01-15T13:29:06.561Z,8.23
2019-01-15T13:31:36.481Z,11.07
2019-01-15T13:34:15.036Z,7.33
2019-01-15T13:36:47.907Z,8.23
2019-01-15T13:39:30.080Z,3.13
2019-01-15T13:42:00.115Z,13.17
2019-01-15T13:44:42.107Z,14.33
2019-01-15T13:47:17.800Z,8.90
2019-01-15T13:49:47.757Z,13.33
2019-01-15T13:52:34.027Z,15.43
2019-01-15T13:55:19.373Z,12.20
2019-01-15T13:58:06.183Z,16.07
2019-01-15T14:00:36.115Z,11.03
2019-01-15T14:03:08.783Z,16.30
2019-01-15T14:05:38.731Z,10.00
2019-01-15T14:08:08.638Z,16.03
2019-01-15T14:10:47.439Z,12.03
2019-01-15T14:13:29.376Z,7.53
2019-01-15T14:15:59.332Z,13.63
2019-01-15T14:18:32.167Z,6.80
2019-01-15T14:21:02.087Z,11.10
2019-01-15T14:23:50.172Z,8.40
2019-01-15T14:26:20.078Z,5.60
2019-01-15T14:28:50.120Z,7.67
2019-01-15T14:31:29.416Z,11.17
2019-01-15T14:34:11.124Z,13.03
2019-01-15T14:36:57.356Z,10.47
2019-01-15T14:39:27.309Z,4.87
2019-01-15T14:41:57.217Z,11.13
2019-01-15T14:44:42.335Z,12.17
2019-01-15T14:47:28.399Z,13.40
2019-01-15T14:50:10.255Z,8.30
2019-01-15T14:52:54.912Z,10.90
2019-01-15T14:55:41.096Z,17.50
2019-01-15T14:58:14.008Z,11.40
2019-01-15T15:00:46.722Z,8.27
2019-01-15T15:03:16.614Z,5.30
2019-01-15T15:05:46.598Z,9.93
2019-01-15T15:08:16.493Z,9.07
2019-01-15T15:10:46.411Z,16.43
2019-01-15T15:13:16.473Z,5.63
2019-01-15T15:16:03.619Z,13.17
2019-01-15T15:18:29.825Z,17.70
2019-01-15T15:21:05.493Z,10.70
2019-01-15T15:23:47.533Z,14.67
2019-01-15T15:26:32.360Z,18.43
2019-01-15T15:29:04.914Z,13.20
2019-01-15T15:31:40.757Z,6.13
2019-01-15T15:34:10.685Z,11.83
2019-01-15T15:36:46.690Z,16.50
2019-01-15T15:39:28.634Z,8.73
2019-01-15T15:42:04.488Z,15.37
2019-01-15T15:44:40.422Z,18.17
2019-01-15T15:47:10.395Z,8.50
2019-01-15T15:49:40.308Z,14.47
2019-01-15T15:52:10.321Z,13.13
2019-01-15T15:54:43.010Z,20.17
2019-01-15T15:57:15.358Z,8.40
2019-01-15T15:59:57.284Z,15.97
2019-01-15T16:02:43.490Z,16.30
2019-01-15T16:05:29.251Z,10.40
2019-01-15T16:08:14.503Z,13.87
2019-01-15T16:10:44.416Z,13.27
2019-01-15T16:13:17.089Z,11.90
2019-01-15T16:16:01.824Z,14.80
2019-01-15T16:18:40.839Z,12.93
2019-01-15T16:21:13.156Z,15.23
2019-01-15T16:23:55.386Z,8.37
2019-01-15T16:26:33.993Z,11.07
2019-01-15T16:29:13.160Z,13.30
2019-01-15T16:31:43.066Z,12.23
2019-01-15T16:34:18.850Z,11.43
2019-01-15T16:37:00.711Z,11.93
2019-01-15T16:39:46.763Z,14.43
2019-01-15T16:42:32.778Z,8.43
2019-01-15T16:45:18.926Z,10.60
2019-01-15T16:47:54.687Z,13.43
2019-01-15T16:50:36.508Z,19.47
2019-01-15T16:53:22.593Z,13.97
2019-01-15T16:56:07.607Z,6.40
2019-01-15T16:58:42.997Z,9.97
2019-01-15T17:01:15.781Z,16.63
2019-01-15T17:03:48.240Z,14.97
2019-01-15T17:06:18.135Z,6.77
2019-01-15T17:09:04.184Z,12.80
2019-01-15T17:11:48.835Z,15.50
2019-01-15T17:14:24.438Z,15.60
2019-01-15T17:17:06.101Z,8.13
2019-01-15T17:19:42.318Z,9.67
2019-01-15T17:22:12.393Z,11.30
2019-01-15T17:25:00.179Z,16.13
2019-01-15T17:27:46.224Z,9.60
2019-01-15T17:30:19.740Z,19.33
2019-01-15T17:32:55.441Z,11.03
2019-01-15T17:35:28.283Z,12.23
2019-01-15T17:38:10.428Z,8.93
2019-01-15T17:40:43.435Z,12.17
2019-01-15T17:43:30.372Z,13.80
2019-01-15T17:46:00.434Z,8.40
2019-01-15T17:48:36.470Z,10.77
2019-01-15T17:51:12.503Z,11.90
2019-01-15T17:54:02.167Z,15.00
2019-01-15T17:56:41.168Z,13.87
2019-01-15T17:59:19.730Z,15.30
2019-01-15T18:01:52.784Z,21.73
2019-01-15T18:04:25.827Z,18.63
2019-01-15T18:07:05.049Z,21.83
2019-01-15T18:09:55.035Z,25.83
2019-01-15T18:12:30.875Z,20.67
2019-01-15T18:15:17.127Z,14.43
2019-01-15T18:17:50.072Z,28.60
2019-01-15T18:20:22.894Z,18.23
2019-01-15T18:23:09.648Z,25.73
2019-01-15T18:25:39.590Z,37.20
2019-01-15T18:28:12.283Z,18.30
2019-01-15T18:30:48.296Z,21.73
2019-01-15T18:33:34.602Z,24.73
2019-01-15T18:36:22.460Z,45.73
2019-01-15T18:38:58.284Z,24.73
2019-01-15T18:41:31.173Z,22.50
2019-01-15T18:44:17.230Z,22.20
2019-01-15T18:46:55.753Z,25.30
2019-01-15T18:49:39.468Z,20.83
2019-01-15T18:52:25.771Z,25.00
2019-01-15T18:55:14.003Z,24.97
2019-01-15T18:57:49.339Z,22.97
2019-01-15T19:00:28.254Z,27.13
2019-01-15T19:03:04.500Z,22.30
2019-01-15T19:05:40.556Z,19.20
2019-01-15T19:08:16.451Z,14.30
2019-01-15T19:10:52.467Z,22.03
2019-01-15T19:13:38.395Z,20.27
2019-01-15T19:16:14.224Z,15.40
2019-01-15T19:19:00.356Z,25.00
2019-01-15T19:21:30.401Z,28.80
2019-01-15T19:24:12.673Z,20.53
2019-01-15T19:26:48.252Z,14.80
2019-01-15T19:29:33.323Z,33.60
2019-01-15T19:32:03.408Z,17.63
2019-01-15T19:34:42.072Z,16.30
2019-01-15T19:37:24.312Z,29.83
2019-01-15T19:39:59.965Z,22.23
2019-01-15T19:42:48.159Z,37.20
2019-01-15T19:45:26.182Z,13.47
2019-01-15T19:47:58.986Z,20.10
2019-01-15T19:50:29.134Z,22.90
2019-01-15T19:53:10.927Z,20.70
2019-01-15T19:55:40.914Z,31.23
2019-01-15T19:58:27.247Z,34.60
2019-01-15T20:01:03.282Z,23.03
2019-01-15T20:03:36.070Z,18.07
2019-01-15T20:06:06.078Z,23.10
2019-01-15T20:08:39.205Z,18.90
2019-01-15T20:11:14.861Z,16.03
2019-01-15T20:13:47.688Z,19.90
2019-01-15T20:16:34.379Z,19.27
2019-01-15T20:19:21.281Z,28.20
2019-01-15T20:22:03.321Z,20.30
2019-01-15T20:24:35.923Z,22.60
2019-01-15T20:27:06.121Z,19.70
2019-01-15T20:29:36.195Z,23.93
2019-01-15T20:32:18.813Z,20.33
2019-01-15T20:34:51.320Z,21.67
2019-01-15T20:37:27.031Z,23.77
2019-01-15T20:39:59.389Z,22.43
2019-01-15T20:42:45.984Z,16.83
2019-01-15T20:45:27.889Z,22.93
2019-01-15T20:48:03.684Z,20.00
2019-01-15T20:50:36.524Z,14.40
2019-01-15T20:53:18.780Z,31.00
2019-01-15T20:55:54.696Z,27.47
2019-01-15T20:58:30.352Z,24.07
2019-01-15T21:01:16.545Z,30.07
2019-01-15T21:03:52.651Z,14.77
2019-01-15T21:06:38.825Z,27.33
2019-01-15T21:09:15.383Z,25.40
2019-01-15T21:11:53.982Z,18.47
2019-01-15T21:14:35.883Z,23.20
2019-01-15T21:17:08.671Z,12.60
2019-01-15T21:19:47.782Z,22.33
2019-01-15T21:22:20.890Z,27.30
2019-01-15T21:24:53.566Z,32.57
2019-01-15T21:27:26.244Z,29.93
2019-01-15T21:30:02.141Z,26.23
2019-01-15T21:32:34.754Z,18.90
2019-01-15T21:35:13.588Z,26.23
2019-01-15T21:37:43.496Z,29.87
2019-01-15T21:40:13.394Z,22.50
2019-01-15T21:42:58.201Z,22.20
2019-01-15T21:45:40.129Z,17.70
2019-01-15T21:48:16.084Z,22.13
2019-01-15T21:50:53.702Z,30.30
2019-01-15T21:53:23.404Z,24.37
2019-01-15T21:55:53.355Z,30.93
2019-01-15T21:58:35.110Z,17.70
2019-01-15T22:01:05.211Z,25.00
2019-01-15T22:03:37.788Z,30.53
2019-01-15T22:06:22.838Z,26.53
2019-01-15T22:08:58.805Z,15.00
2019-01-15T22:11:43.887Z,25.27
2019-01-15T22:14:29.884Z,21.80
2019-01-15T22:16:59.950Z,29.43
2019-01-15T22:19:49.578Z,15.47
2019-01-15T22:22:35.595Z,21.87
2019-01-15T22:25:15.749Z,26.57
2019-01-15T22:28:00.742Z,25.83
2019-01-15T22:30:33.396Z,21.90
2019-01-15T22:33:15.019Z,22.17
2019-01-15T22:36:01.200Z,28.53
2019-01-15T22:38:33.927Z,24.70
2019-01-15T22:41:19.983Z,21.27
2019-01-15T22:43:49.885Z,22.40
2019-01-15T22:46:21.799Z,24.67
2019-01-15T22:48:51.783Z,19.43
2019-01-15T22:51:38.171Z,29.53
2019-01-15T22:54:23.009Z,22.17
2019-01-15T22:57:01.730Z,23.63
2019-01-15T22:59:31.685Z,20.77
2019-01-15T23:02:01.588Z,26.50
2019-01-15T23:04:40.427Z,15.80
2019-01-15T23:07:19.323Z,39.57
2019-01-15T23:09:52.538Z,16.53
2019-01-15T23:12:26.169Z,27.73
2019-01-15T23:15:22.802Z,23.27
2019-01-15T23:18:10.668Z,20.13
2019-01-15T23:20:46.363Z,19.17
2019-01-15T23:23:21.915Z,24.13
2019-01-15T23:26:09.944Z,17.37
2019-01-15T23:28:46.686Z,14.63
2019-01-15T23:31:22.394Z,21.77
2019-01-15T23:33:54.511Z,18.00
2019-01-15T23:36:29.322Z,16.03
2019-01-15T23:38:56.702Z,23.17
2019-01-15T23:41:43.673Z,23.10
2019-01-15T23:44:22.505Z,17.67
2019-01-15T23:46:54.185Z,28.43
2019-01-15T23:49:27.170Z,23.83
2019-01-15T23:52:09.217Z,20.60
2019-01-15T23:54:47.990Z,17.23
2019-01-15T23:57:23.717Z,15.60
2019-01-15T23:59:53.695Z,27.63
